Time;durP1;ratioP1;P1;durP2;ratioP2;P2;SDS_P1;SDS_P2;PMS_P1;PMS_P2;Temp;Humidity;BMP_temperature;BMP_pressure;BME280_temperature;BME280_humidity;BME280_pressure;Samples;Min_cycle;Max_cycle;Signal;HPM_P1;HPM_P2
2024/02/29 00:00:54;;;;;;;57.10;23.95;;;;;;;3.14;100.00;101067.66;5184908;28;20049;-73
2024/02/29 00:03:24;;;;;;;54.47;22.00;;;;;;;3.13;100.00;101067.63;5184595;28;20036;-73
2024/02/29 00:05:54;;;;;;;58.55;24.25;;;;;;;3.21;100.00;101058.19;5189148;28;20029;-73
2024/02/29 00:08:26;;;;;;;51.90;22.60;;;;;;;3.10;100.00;101053.03;5183326;28;20029;-73
2024/02/29 00:10:57;;;;;;;51.50;22.38;;;;;;;3.00;100.00;101053.00;5187965;28;20028;-72
2024/02/29 00:13:27;;;;;;;53.67;22.95;;;;;;;2.87;100.00;101052.09;5166779;28;20430;-73
2024/02/29 00:15:57;;;;;;;52.00;22.38;;;;;;;2.82;100.00;101050.38;5186907;28;20021;-72
2024/02/29 00:18:28;;;;;;;54.95;22.88;;;;;;;2.99;100.00;101048.69;5189185;28;20020;-73
2024/02/29 00:20:58;;;;;;;52.85;22.38;;;;;;;2.95;100.00;101046.94;5187374;28;20025;-73
2024/02/29 00:23:28;;;;;;;57.40;22.00;;;;;;;2.98;100.00;101037.50;5185608;28;20044;-73
2024/02/29 00:25:59;;;;;;;57.95;22.52;;;;;;;2.85;100.00;101050.38;5187571;28;20056;-73
2024/02/29 00:28:29;;;;;;;56.88;23.60;;;;;;;2.84;100.00;101046.91;5188180;28;20490;-73
2024/02/29 00:30:59;;;;;;;52.63;23.38;;;;;;;2.81;100.00;101038.28;5188254;28;20387;-73
2024/02/29 00:33:30;;;;;;;50.83;22.55;;;;;;;2.89;100.00;101036.63;5186748;28;20032;-73
2024/02/29 00:36:00;;;;;;;53.63;23.48;;;;;;;2.83;100.00;101044.34;5188976;28;20084;-73
2024/02/29 00:38:30;;;;;;;51.05;22.90;;;;;;;2.76;100.00;101037.44;5186642;28;20491;-73
2024/02/29 00:41:00;;;;;;;50.45;22.02;;;;;;;2.78;100.00;101033.13;5186372;28;20028;-73
2024/02/29 00:43:31;;;;;;;58.25;23.10;;;;;;;2.85;100.00;101027.16;5186625;28;20217;-73
2024/02/29 00:46:01;;;;;;;54.08;22.30;;;;;;;2.76;100.00;101029.69;5188311;28;20032;-73
2024/02/29 00:48:31;;;;;;;52.75;22.33;;;;;;;2.73;100.00;101027.09;5188371;28;20029;-73
2024/02/29 00:51:03;;;;;;;51.15;21.67;;;;;;;2.66;100.00;101026.22;5188209;28;20431;-73
2024/02/29 00:53:33;;;;;;;51.88;22.10;;;;;;;2.70;100.00;101024.53;5185257;28;20412;-73
2024/02/29 00:56:04;;;;;;;53.08;22.48;;;;;;;2.58;100.00;101022.78;5184636;28;20064;-73
2024/02/29 00:58:35;;;;;;;51.58;22.55;;;;;;;2.56;100.00;101016.75;5188542;28;20056;-73
2024/02/29 01:01:06;;;;;;;54.30;22.63;;;;;;;2.64;100.00;101020.19;5186407;28;20067;-73
2024/02/29 01:03:36;;;;;;;57.20;23.35;;;;;;;2.66;100.00;101015.06;5168174;28;20049;-72
2024/02/29 01:06:07;;;;;;;48.33;20.08;;;;;;;2.71;100.00;101018.50;5190082;28;20025;-73
2024/02/29 01:08:38;;;;;;;50.70;20.65;;;;;;;2.68;100.00;101021.06;5184248;28;20033;-73
2024/02/29 01:11:08;;;;;;;47.25;20.08;;;;;;;2.71;100.00;101011.59;5188815;28;20100;-73
2024/02/29 01:13:38;;;;;;;46.67;20.33;;;;;;;2.68;100.00;101011.59;5186105;28;20037;-73
2024/02/29 01:16:09;;;;;;;47.55;19.42;;;;;;;2.68;100.00;101003.03;5185492;28;20049;-73
2024/02/29 01:18:40;;;;;;;47.22;18.88;;;;;;;2.71;100.00;101005.59;5187543;28;20458;-73
2024/02/29 01:21:10;;;;;;;45.45;18.67;;;;;;;2.64;100.00;101012.47;5185821;28;20434;-73
2024/02/29 01:23:40;;;;;;;45.67;18.10;;;;;;;2.63;100.00;100999.53;5184894;28;20029;-73
2024/02/29 01:26:11;;;;;;;42.20;18.73;;;;;;;2.71;100.00;100998.69;5189779;28;20025;-73
2024/02/29 01:28:43;;;;;;;42.38;18.17;;;;;;;2.71;100.00;100995.28;5197542;28;20025;-73
2024/02/29 01:31:14;;;;;;;41.17;17.60;;;;;;;2.62;100.00;100990.97;5182444;28;20029;-73
2024/02/29 01:33:44;;;;;;;44.33;17.83;;;;;;;2.70;100.00;100990.97;5184058;28;20107;-73
2024/02/29 01:36:14;;;;;;;40.88;17.27;;;;;;;2.66;100.00;100986.69;5187991;28;20030;-73
2024/02/29 01:38:45;;;;;;;41.33;17.63;;;;;;;2.65;100.00;100990.97;5186849;28;20036;-73
2024/02/29 01:41:17;;;;;;;41.30;17.75;;;;;;;2.56;100.00;100979.75;5188367;28;20056;-73
2024/02/29 01:43:52;;;;;;;40.70;18.00;;;;;;;2.54;100.00;100978.91;5182591;28;20467;-73
2024/02/29 01:46:23;;;;;;;41.33;17.77;;;;;;;2.53;100.00;100979.75;5190920;28;20021;-73
2024/02/29 01:48:54;;;;;;;40.85;18.20;;;;;;;2.47;100.00;100974.59;5188461;28;20043;-73
2024/02/29 01:51:25;;;;;;;42.15;18.45;;;;;;;2.54;100.00;100974.59;5186848;28;20029;-73
2024/02/29 01:53:55;;;;;;;42.95;17.90;;;;;;;2.50;100.00;100961.69;5186481;28;20116;-73
2024/02/29 01:56:26;;;;;;;42.67;17.88;;;;;;;2.39;100.00;100955.63;5189003;28;20539;-73
2024/02/29 01:58:59;;;;;;;40.63;17.35;;;;;;;2.26;100.00;100959.91;5188054;28;20022;-71
2024/02/29 02:01:29;;;;;;;38.58;17.40;;;;;;;2.31;100.00;100967.66;5187870;28;20021;-73
2024/02/29 02:04:00;;;;;;;44.70;17.20;;;;;;;2.31;100.00;100959.91;5185447;28;20415;-72
2024/02/29 02:06:31;;;;;;;43.03;16.83;;;;;;;2.24;100.00;100953.88;5172228;28;20424;-73
2024/02/29 02:09:01;;;;;;;42.80;17.45;;;;;;;2.21;100.00;100955.56;5185791;28;20112;-73
2024/02/29 02:11:32;;;;;;;39.67;15.98;;;;;;;2.24;100.00;100955.56;5183760;28;20024;-73
2024/02/29 02:14:02;;;;;;;39.83;16.58;;;;;;;2.31;100.00;100949.59;5184783;28;20067;-73
2024/02/29 02:16:33;;;;;;;38.72;16.67;;;;;;;2.31;100.00;100944.44;5187828;28;20498;-73
2024/02/29 02:19:03;;;;;;;38.78;15.88;;;;;;;2.30;100.00;100946.16;5191068;28;20029;-74
2024/02/29 02:21:33;;;;;;;35.53;15.68;;;;;;;2.31;100.00;100941.88;5183664;28;20113;-73
2024/02/29 02:24:04;;;;;;;42.05;16.38;;;;;;;2.33;100.00;100945.31;5182923;28;20048;-73
2024/02/29 02:26:34;;;;;;;40.90;16.65;;;;;;;2.40;100.00;100947.03;5182539;28;20037;-72
2024/02/29 02:29:08;;;;;;;36.03;15.15;;;;;;;2.39;100.00;100935.00;5184688;28;20052;-73
2024/02/29 02:31:38;;;;;;;37.60;15.48;;;;;;;2.37;100.00;100934.97;5189258;28;20021;-73
2024/02/29 02:34:08;;;;;;;34.47;15.43;;;;;;;2.41;100.00;100938.44;5186850;28;20033;-73
2024/02/29 02:36:39;;;;;;;35.25;14.88;;;;;;;2.44;100.00;100936.75;5183268;28;20086;-73
2024/02/29 02:39:09;;;;;;;39.35;15.85;;;;;;;2.42;100.00;100930.72;5182263;28;20172;-73
2024/02/29 02:41:40;;;;;;;36.47;15.50;;;;;;;2.38;100.00;100931.59;5186053;28;20138;-73
2024/02/29 02:44:12;;;;;;;36.47;15.18;;;;;;;2.39;100.00;100928.16;5182688;28;20026;-73
2024/02/29 02:46:42;;;;;;;36.38;14.85;;;;;;;2.37;100.00;100921.25;5184157;28;20059;-73
2024/02/29 02:49:13;;;;;;;35.17;15.07;;;;;;;2.27;100.00;100914.34;5183642;28;20057;-73
2024/02/29 02:51:44;;;;;;;33.30;15.52;;;;;;;2.28;100.00;100916.06;5183867;28;20106;-73
2024/02/29 02:54:14;;;;;;;35.28;14.85;;;;;;;2.33;100.00;100910.06;5182040;28;20029;-73
2024/02/29 02:56:44;;;;;;;34.47;15.30;;;;;;;2.30;100.00;100912.63;5184886;28;20550;-73
2024/02/29 02:59:15;;;;;;;34.95;14.75;;;;;;;2.33;100.00;100904.06;5188723;28;20248;-73
2024/02/29 03:01:45;;;;;;;40.50;16.42;;;;;;;2.28;100.00;100898.88;5186753;28;20021;-73
2024/02/29 03:04:16;;;;;;;36.00;14.90;;;;;;;2.24;100.00;100901.44;5182545;28;20548;-73
2024/02/29 03:06:47;;;;;;;36.75;15.43;;;;;;;2.22;100.00;100900.56;5187255;28;20026;-73
2024/02/29 03:09:17;;;;;;;35.00;15.02;;;;;;;2.21;100.00;100889.41;5186865;28;20021;-73
2024/02/29 03:11:48;;;;;;;39.40;14.95;;;;;;;2.20;100.00;100886.81;5187031;28;20425;-73
2024/02/29 03:14:18;;;;;;;34.05;14.82;;;;;;;2.23;100.00;100885.13;5186994;28;20040;-73
2024/02/29 03:16:48;;;;;;;30.83;13.75;;;;;;;2.18;100.00;100883.38;5187090;28;20459;-73
2024/02/29 03:19:19;;;;;;;32.95;14.30;;;;;;;2.20;100.00;100879.94;5191961;28;20537;-73
2024/02/29 03:21:49;;;;;;;33.60;14.82;;;;;;;2.26;100.00;100881.66;5191236;28;20024;-73
2024/02/29 03:24:19;;;;;;;34.13;14.10;;;;;;;2.20;100.00;100876.50;5190910;28;20529;-73
2024/02/29 03:26:50;;;;;;;33.30;14.30;;;;;;;2.11;99.99;100876.47;5192603;28;20109;-73
2024/02/29 03:29:20;;;;;;;32.65;14.77;;;;;;;2.10;100.00;100872.19;5191121;28;20025;-73
2024/02/29 03:31:50;;;;;;;33.95;14.32;;;;;;;2.13;100.00;100870.47;5192789;28;20017;-73
2024/02/29 03:34:21;;;;;;;32.97;14.82;;;;;;;2.22;100.00;100865.38;5192981;28;20124;-73
2024/02/29 03:36:51;;;;;;;34.80;14.55;;;;;;;2.17;99.75;100861.03;5188764;28;20018;-72
2024/02/29 03:39:21;;;;;;;33.97;14.65;;;;;;;2.06;100.00;100858.44;5190290;28;20052;-73
2024/02/29 03:41:52;;;;;;;33.00;13.60;;;;;;;2.07;99.96;100851.56;5190817;28;20406;-73
2024/02/29 03:44:22;;;;;;;37.95;14.75;;;;;;;1.99;99.85;100846.38;5188010;28;20095;-73
2024/02/29 03:46:53;;;;;;;34.47;14.07;;;;;;;2.03;100.00;100842.94;5192188;28;20021;-73
2024/02/29 03:49:23;;;;;;;29.58;12.55;;;;;;;1.99;100.00;100845.53;5189322;28;20095;-73
2024/02/29 03:51:53;;;;;;;34.75;13.68;;;;;;;1.95;100.00;100842.06;5187632;28;20057;-73
2024/02/29 03:54:24;;;;;;;31.90;13.23;;;;;;;1.93;100.00;100840.34;5188008;28;20064;-73
2024/02/29 03:56:54;;;;;;;31.90;13.82;;;;;;;1.98;100.00;100836.09;5191709;28;20029;-73
2024/02/29 03:59:25;;;;;;;29.90;12.70;;;;;;;1.98;100.00;100831.78;5188592;28;20033;-73
2024/02/29 04:01:55;;;;;;;31.70;12.93;;;;;;;1.96;100.00;100825.75;5189784;28;20017;-73
2024/02/29 04:04:26;;;;;;;33.80;13.45;;;;;;;1.95;100.00;100820.59;5191833;28;20083;-73
2024/02/29 04:06:56;;;;;;;25.88;11.48;;;;;;;2.00;100.00;100816.31;5190107;28;20025;-73
2024/02/29 04:09:27;;;;;;;28.75;12.38;;;;;;;1.96;100.00;100819.75;5190014;28;20021;-73
2024/02/29 04:11:57;;;;;;;29.90;12.02;;;;;;;2.00;100.00;100806.03;5191219;28;20128;-73
2024/02/29 04:14:27;;;;;;;29.38;12.65;;;;;;;1.96;100.00;100799.16;5192250;28;20521;-72
2024/02/29 04:17:00;;;;;;;30.70;12.20;;;;;;;1.97;100.00;100800.88;5176432;28;20115;-72
2024/02/29 04:19:30;;;;;;;32.45;12.60;;;;;;;2.05;100.00;100800.03;5197534;28;20439;-73
2024/02/29 04:22:00;;;;;;;28.83;11.65;;;;;;;2.08;100.00;100801.72;5190766;28;20044;-73
2024/02/29 04:24:31;;;;;;;32.78;12.52;;;;;;;2.02;100.00;100794.00;5189845;28;20031;-73
2024/02/29 04:27:01;;;;;;;27.85;12.13;;;;;;;2.06;100.00;100798.28;5190147;28;20025;-72
2024/02/29 04:29:32;;;;;;;28.48;11.73;;;;;;;2.10;100.00;100794.84;5186852;28;20017;-73
2024/02/29 04:32:02;;;;;;;29.17;11.52;;;;;;;2.03;100.00;100793.13;5189837;28;20487;-73
2024/02/29 04:34:33;;;;;;;25.98;11.07;;;;;;;2.12;100.00;100787.97;5189683;28;20025;-73
2024/02/29 04:37:04;;;;;;;25.83;10.88;;;;;;;2.12;100.00;100790.56;5190494;28;20026;-73
2024/02/29 04:39:35;;;;;;;24.23;10.68;;;;;;;2.22;100.00;100789.72;5188620;28;20036;-73
2024/02/29 04:42:05;;;;;;;27.20;11.43;;;;;;;2.27;100.00;100791.47;5189839;28;20025;-73
2024/02/29 04:44:35;;;;;;;30.45;11.63;;;;;;;2.33;100.00;100790.59;5189691;28;20514;-73
2024/02/29 04:47:07;;;;;;;28.00;10.77;;;;;;;2.34;100.00;100789.75;5183759;28;20492;-70
2024/02/29 04:49:37;;;;;;;25.48;10.60;;;;;;;2.37;100.00;100788.00;5187528;28;20094;-73
2024/02/29 04:52:07;;;;;;;21.45;9.68;;;;;;;2.42;100.00;100795.75;5189337;28;20018;-73
2024/02/29 04:54:38;;;;;;;27.00;10.35;;;;;;;2.40;99.91;100785.47;5190256;28;20441;-73
2024/02/29 04:57:08;;;;;;;24.45;9.98;;;;;;;2.47;99.57;100794.91;5188080;28;20086;-72
2024/02/29 04:59:38;;;;;;;22.63;9.68;;;;;;;2.47;99.45;100788.91;5189131;28;20390;-73
2024/02/29 05:02:09;;;;;;;26.83;10.95;;;;;;;2.40;99.30;100788.03;5188701;28;20119;-73
2024/02/29 05:04:39;;;;;;;25.55;10.95;;;;;;;2.46;99.40;100790.59;5189104;28;20078;-73
2024/02/29 05:07:10;;;;;;;22.88;10.18;;;;;;;2.48;99.57;100781.16;5189491;28;20051;-72
2024/02/29 05:09:41;;;;;;;23.00;10.15;;;;;;;2.51;99.73;100775.97;5188706;28;20036;-73
2024/02/29 05:12:11;;;;;;;25.73;10.85;;;;;;;2.50;99.52;100779.44;5189620;28;20033;-73
2024/02/29 05:14:41;;;;;;;23.10;10.52;;;;;;;2.58;99.51;100774.28;5188866;28;20029;-73
2024/02/29 05:17:12;;;;;;;24.10;9.70;;;;;;;2.58;98.47;100767.41;5187673;28;20037;-73
2024/02/29 05:19:42;;;;;;;25.88;10.93;;;;;;;2.52;98.18;100772.53;5188536;28;20382;-73
2024/02/29 05:22:12;;;;;;;22.23;9.45;;;;;;;2.42;98.08;100775.13;5188583;28;20041;-73
2024/02/29 05:24:43;;;;;;;23.67;10.95;;;;;;;2.38;98.73;100773.41;5188710;28;20119;-73
2024/02/29 05:27:13;;;;;;;22.40;9.73;;;;;;;2.38;98.94;100770.84;5188707;28;20446;-73
2024/02/29 05:29:43;;;;;;;22.17;9.88;;;;;;;2.39;99.05;100769.97;5183111;28;20029;-73
2024/02/29 05:32:14;;;;;;;23.52;10.25;;;;;;;2.35;98.92;100758.78;5188766;28;20030;-73
2024/02/29 05:34:45;;;;;;;19.80;8.90;;;;;;;2.36;99.41;100763.09;5188444;28;20068;-73
2024/02/29 05:37:16;;;;;;;22.60;9.80;;;;;;;2.28;98.49;100758.78;5189835;28;20033;-72
2024/02/29 05:39:46;;;;;;;22.30;9.57;;;;;;;2.34;99.43;100761.38;5186734;28;20021;-73
2024/02/29 05:42:16;;;;;;;24.40;9.95;;;;;;;2.30;98.65;100759.69;5187777;28;20021;-72
2024/02/29 05:44:47;;;;;;;22.83;10.02;;;;;;;2.24;98.85;100754.50;5180172;28;20026;-73
2024/02/29 05:47:17;;;;;;;23.13;10.43;;;;;;;2.09;99.02;100754.47;5185384;28;20064;-73
2024/02/29 05:49:49;;;;;;;20.30;9.60;;;;;;;2.09;100.00;100754.47;5185620;28;20395;-73
2024/02/29 05:52:19;;;;;;;26.63;10.15;;;;;;;2.07;99.83;100746.75;5188262;28;20120;-72
2024/02/29 05:54:49;;;;;;;21.88;10.25;;;;;;;2.21;99.52;100749.34;5191956;28;20550;-73
2024/02/29 05:57:20;;;;;;;24.23;10.00;;;;;;;2.06;99.26;100755.34;5188116;28;20063;-72
2024/02/29 05:59:50;;;;;;;23.70;9.50;;;;;;;2.13;99.28;100751.06;5188579;28;20105;-73
2024/02/29 06:02:20;;;;;;;22.85;10.10;;;;;;;2.07;99.22;100751.91;5183778;28;20396;-72
2024/02/29 06:04:51;;;;;;;20.27;9.18;;;;;;;2.22;99.36;100740.75;5185623;28;20025;-73
2024/02/29 06:07:21;;;;;;;24.38;10.07;;;;;;;2.32;98.92;100747.63;5186051;28;20116;-72
2024/02/29 06:09:51;;;;;;;23.05;9.77;;;;;;;2.29;98.88;100745.91;5186921;28;20029;-73
2024/02/29 06:12:22;;;;;;;23.27;9.82;;;;;;;2.35;98.55;100740.75;5188732;28;20025;-73
2024/02/29 06:14:52;;;;;;;23.23;9.30;;;;;;;2.45;98.77;100739.03;5186967;28;20208;-73
2024/02/29 06:17:22;;;;;;;21.08;9.45;;;;;;;2.43;97.70;100735.59;5203540;28;20025;-72
2024/02/29 06:19:53;;;;;;;21.33;9.52;;;;;;;2.48;98.14;100728.72;5185302;28;20392;-73
2024/02/29 06:22:24;;;;;;;20.83;9.35;;;;;;;2.58;98.21;100735.56;5184978;28;20029;-73
2024/02/29 06:24:54;;;;;;;23.50;9.93;;;;;;;2.63;97.15;100737.28;5184552;28;20107;-73
2024/02/29 06:27:26;;;;;;;21.63;9.02;;;;;;;2.78;96.19;100729.53;5181053;28;20075;-73
2024/02/29 06:29:57;;;;;;;22.38;9.50;;;;;;;2.85;96.19;100725.22;5187117;28;20111;-73
2024/02/29 06:32:27;;;;;;;21.42;9.40;;;;;;;2.86;95.55;100732.94;5189067;28;20123;-73
2024/02/29 06:34:57;;;;;;;19.05;8.50;;;;;;;2.96;96.03;100728.63;5188867;28;20503;-73
2024/02/29 06:37:28;;;;;;;23.23;9.00;;;;;;;3.09;95.24;100720.84;5188082;28;20041;-72
2024/02/29 06:39:58;;;;;;;17.63;8.35;;;;;;;3.14;94.28;100723.41;5181409;28;20033;-73
2024/02/29 06:42:28;;;;;;;19.27;8.32;;;;;;;3.17;93.77;100724.25;5186568;28;20017;-73
2024/02/29 06:44:59;;;;;;;20.08;8.63;;;;;;;3.21;94.61;100719.94;5188888;28;20033;-72
2024/02/29 06:47:29;;;;;;;15.30;7.25;;;;;;;3.29;94.09;100724.22;5184041;28;20075;-73
2024/02/29 06:50:00;;;;;;;17.83;7.90;;;;;;;3.39;94.35;100735.38;5185568;28;20036;-73
2024/02/29 06:52:30;;;;;;;16.73;7.82;;;;;;;3.70;93.16;100722.28;5190358;28;20573;-73
2024/02/29 06:55:01;;;;;;;16.95;7.13;;;;;;;3.76;92.81;100715.34;5187987;28;20163;-73
2024/02/29 06:57:31;;;;;;;17.50;7.68;;;;;;;3.75;92.66;100721.38;5188634;28;20029;-72
2024/02/29 07:00:04;;;;;;;14.70;7.15;;;;;;;3.71;92.97;100719.69;5185783;28;20037;-73
2024/02/29 07:02:35;;;;;;;15.48;7.13;;;;;;;3.84;92.62;100710.13;5180042;28;20234;-73
2024/02/29 07:05:08;;;;;;;15.50;7.03;;;;;;;3.89;92.20;100708.38;5188991;28;20021;-73
2024/02/29 07:07:38;;;;;;;18.00;7.43;;;;;;;3.91;92.62;100707.50;5184278;28;20032;-73
2024/02/29 07:10:10;;;;;;;18.17;7.82;;;;;;;3.96;92.58;100697.97;5203586;28;20030;-72
2024/02/29 07:12:40;;;;;;;16.35;7.60;;;;;;;4.07;92.23;100703.94;5189807;28;20064;-73
2024/02/29 07:15:11;;;;;;;19.52;8.88;;;;;;;4.07;92.28;100703.94;5187231;28;20554;-73
2024/02/29 07:17:41;;;;;;;17.50;8.35;;;;;;;4.16;92.73;100700.44;5188786;28;20033;-73
2024/02/29 07:20:14;;;;;;;18.65;8.40;;;;;;;4.27;92.67;100696.03;5179693;28;20040;-73
2024/02/29 07:22:46;;;;;;;20.98;8.55;;;;;;;4.21;92.44;100696.94;5181279;28;20051;-73
2024/02/29 07:25:16;;;;;;;19.10;8.90;;;;;;;4.30;91.99;100701.19;5181998;28;20037;-73
2024/02/29 07:27:48;;;;;;;17.48;7.65;;;;;;;4.47;91.86;100700.13;5197513;28;20087;-72
2024/02/29 07:30:18;;;;;;;17.65;8.05;;;;;;;4.59;91.80;100697.44;5179816;28;20045;-73
2024/02/29 07:32:48;;;;;;;17.98;8.02;;;;;;;4.90;90.76;100698.84;5184335;28;20104;-73
2024/02/29 07:35:19;;;;;;;17.92;7.85;;;;;;;6.04;86.69;100697.34;5185945;28;20021;-73
2024/02/29 07:37:49;;;;;;;15.07;7.65;;;;;;;7.01;82.95;100694.78;5187004;28;20052;-73
2024/02/29 07:40:19;;;;;;;15.93;8.43;;;;;;;8.03;79.32;100677.81;5185358;28;20475;-73
2024/02/29 07:42:50;;;;;;;14.32;7.28;;;;;;;8.96;74.20;100671.06;5195777;28;20112;-74
2024/02/29 07:45:20;;;;;;;17.20;7.65;;;;;;;9.85;70.71;100667.50;5180619;28;20064;-73
2024/02/29 07:47:51;;;;;;;15.48;7.32;;;;;;;10.17;69.62;100676.97;5202687;28;20024;-73
2024/02/29 07:50:21;;;;;;;13.73;6.72;;;;;;;11.35;67.53;100673.63;5188730;28;20021;-74
2024/02/29 07:52:51;;;;;;;15.52;7.13;;;;;;;11.89;65.79;100661.06;5182909;28;20128;-73
2024/02/29 07:55:22;;;;;;;13.65;7.00;;;;;;;12.11;63.33;100677.63;5181144;28;20035;-74
2024/02/29 07:57:52;;;;;;;12.77;6.65;;;;;;;11.87;63.62;100667.28;5185256;28;20049;-73
2024/02/29 08:00:22;;;;;;;11.38;6.22;;;;;;;12.19;62.74;100670.31;5182124;28;20103;-74
2024/02/29 08:02:53;;;;;;;12.95;6.90;;;;;;;13.13;61.96;100660.16;5176115;28;20116;-74
2024/02/29 08:05:24;;;;;;;12.05;6.40;;;;;;;13.53;60.00;100655.66;5189426;28;20029;-74
2024/02/29 08:07:55;;;;;;;12.70;5.85;;;;;;;13.67;60.43;100666.38;5187072;28;20529;-74
2024/02/29 08:10:25;;;;;;;11.98;5.68;;;;;;;13.49;61.25;100661.09;5187115;28;20124;-74
2024/02/29 08:12:56;;;;;;;12.20;6.40;;;;;;;13.99;60.63;100663.06;5190963;28;20022;-74
2024/02/29 08:15:26;;;;;;;9.90;5.70;;;;;;;13.88;60.73;100659.25;5184837;28;20335;-74
2024/02/29 08:17:57;;;;;;;9.65;5.53;;;;;;;14.04;59.28;100660.19;5187973;28;20037;-73
2024/02/29 08:20:28;;;;;;;11.70;5.97;;;;;;;13.36;60.57;100659.94;5184313;28;20026;-74
2024/02/29 08:22:58;;;;;;;11.65;6.13;;;;;;;13.80;60.89;100651.75;5187497;28;20149;-74
2024/02/29 08:25:30;;;;;;;8.75;5.22;;;;;;;14.55;59.72;100647.16;5183916;28;22263;-74
2024/02/29 08:28:01;;;;;;;10.98;5.75;;;;;;;14.80;58.77;100640.56;5186548;28;20037;-74
2024/02/29 08:30:31;;;;;;;10.70;5.70;;;;;;;14.87;58.88;100628.81;5193926;28;20029;-74
2024/02/29 08:33:01;;;;;;;10.68;5.60;;;;;;;14.51;59.08;100628.06;5186561;28;20025;-74
2024/02/29 08:35:32;;;;;;;13.30;6.43;;;;;;;14.50;60.46;100628.13;5191591;28;20635;-74
2024/02/29 08:38:02;;;;;;;10.75;5.93;;;;;;;14.32;59.14;100624.66;5191244;28;20565;-74
2024/02/29 08:40:33;;;;;;;10.38;5.90;;;;;;;14.04;60.28;100628.66;5188333;28;20052;-74
2024/02/29 08:43:03;;;;;;;10.98;6.28;;;;;;;14.72;60.88;100616.44;5167424;28;20036;-74
2024/02/29 08:45:34;;;;;;;10.82;6.07;;;;;;;14.56;60.53;100619.94;5188596;28;20613;-71
2024/02/29 08:48:04;;;;;;;10.90;6.38;;;;;;;14.63;59.53;100616.06;5197933;28;20591;-74
2024/02/29 08:50:34;;;;;;;10.63;5.90;;;;;;;14.92;59.80;100611.84;5182365;28;20027;-71
2024/02/29 08:53:05;;;;;;;11.90;6.35;;;;;;;14.70;59.75;100614.81;5184929;28;20040;-74
2024/02/29 08:55:35;;;;;;;9.80;5.97;;;;;;;15.53;59.94;100607.63;5190008;28;20036;-71
2024/02/29 08:58:05;;;;;;;8.98;5.57;;;;;;;15.34;57.97;100609.56;5188409;28;20021;-74
2024/02/29 09:00:36;;;;;;;11.27;6.50;;;;;;;14.32;60.25;100608.88;5184454;28;20426;-72
2024/02/29 09:03:08;;;;;;;10.48;6.30;;;;;;;14.35;61.11;100613.13;5183856;28;20032;-74
2024/02/29 09:05:40;;;;;;;10.23;6.00;;;;;;;14.53;60.93;100601.66;5188294;28;20033;-74
2024/02/29 09:08:10;;;;;;;11.68;6.78;;;;;;;14.97;59.43;100604.53;5189307;28;20029;-73
2024/02/29 09:10:41;;;;;;;12.15;6.43;;;;;;;14.30;62.04;100597.59;5187264;28;20022;-74
2024/02/29 09:13:11;;;;;;;11.02;6.70;;;;;;;13.77;62.37;100601.94;5183911;28;20290;-73
2024/02/29 09:15:44;;;;;;;15.85;7.03;;;;;;;13.07;63.27;100613.19;5184538;28;20549;-73
2024/02/29 09:18:14;;;;;;;12.27;6.78;;;;;;;12.08;67.60;100614.03;5192809;28;20029;-73
2024/02/29 09:20:44;;;;;;;10.68;6.47;;;;;;;11.72;68.99;100615.50;5185422;28;20087;-73
2024/02/29 09:23:15;;;;;;;13.63;6.47;;;;;;;11.32;69.07;100613.56;5180498;28;20087;-73
2024/02/29 09:25:45;;;;;;;12.35;7.18;;;;;;;11.14;71.50;100619.47;5185317;28;20451;-74
2024/02/29 09:28:16;;;;;;;14.93;7.28;;;;;;;10.98;71.11;100614.00;5185613;28;20490;-73
2024/02/29 09:30:46;;;;;;;13.32;6.97;;;;;;;11.02;71.95;100612.09;5185024;28;20415;-73
2024/02/29 09:33:16;;;;;;;15.73;7.80;;;;;;;10.94;71.72;100613.28;5179327;28;20083;-73
2024/02/29 09:35:47;;;;;;;18.02;8.32;;;;;;;10.69;72.07;100604.59;5188145;28;20091;-73
2024/02/29 09:38:17;;;;;;;15.23;7.70;;;;;;;10.84;71.72;100605.81;5190724;28;20060;-73
2024/02/29 09:40:47;;;;;;;15.45;8.18;;;;;;;10.65;72.54;100603.00;5189151;28;20457;-74
2024/02/29 09:43:19;;;;;;;14.80;8.00;;;;;;;10.87;72.75;100595.25;5191003;28;20025;-73
2024/02/29 09:45:51;;;;;;;16.67;8.50;;;;;;;10.92;71.59;100591.56;5189118;28;20030;-73
2024/02/29 09:48:22;;;;;;;16.48;8.63;;;;;;;10.97;73.23;100587.00;5180800;28;20255;-73
2024/02/29 09:50:56;;;;;;;15.73;8.80;;;;;;;10.95;73.28;100586.22;5188353;28;20033;-73
2024/02/29 09:53:27;;;;;;;16.15;9.02;;;;;;;11.05;72.48;100584.94;5184658;28;20060;-73
2024/02/29 09:55:58;;;;;;;14.68;8.27;;;;;;;11.13;73.50;100586.38;5185238;28;20447;-72
2024/02/29 09:58:31;;;;;;;16.80;8.82;;;;;;;10.96;73.10;100585.31;5186709;28;20615;-73
2024/02/29 10:01:03;;;;;;;17.38;9.23;;;;;;;11.03;71.68;100576.31;5188769;28;20386;-73
2024/02/29 10:03:34;;;;;;;18.20;9.07;;;;;;;11.22;71.47;100570.34;5186840;28;20039;-73
2024/02/29 10:06:05;;;;;;;15.18;8.75;;;;;;;11.29;71.43;100577.03;5188709;28;20029;-73
2024/02/29 10:08:36;;;;;;;16.63;8.77;;;;;;;11.39;71.06;100578.38;5184508;28;20087;-73
2024/02/29 10:11:07;;;;;;;15.65;9.10;;;;;;;11.60;72.73;100566.28;5195574;28;20472;-73
2024/02/29 10:13:39;;;;;;;18.20;9.18;;;;;;;11.63;70.36;100574.81;5198780;23;20082;-74
2024/02/29 10:16:12;;;;;;;14.43;8.35;;;;;;;11.69;71.71;100569.38;5144695;28;20129;-74
2024/02/29 10:18:43;;;;;;;18.67;9.15;;;;;;;11.57;72.38;100559.38;5130272;28;20510;-73
2024/02/29 10:21:15;;;;;;;21.88;8.07;;;;;;;11.65;72.55;100557.28;5147706;28;20037;-74
2024/02/29 10:23:45;;;;;;;15.93;8.18;;;;;;;11.69;71.35;100553.66;5146647;28;20239;-74
2024/02/29 10:26:15;;;;;;;16.63;7.65;;;;;;;11.56;71.14;100551.56;5147459;28;20038;-75
2024/02/29 10:28:45;;;;;;;16.17;8.82;;;;;;;11.60;71.44;100553.19;5147972;28;20033;-74
2024/02/29 10:31:16;;;;;;;16.50;8.35;;;;;;;11.52;71.10;100552.59;5148047;28;20025;-74
2024/02/29 10:33:48;;;;;;;16.45;8.32;;;;;;;11.44;72.49;100545.03;5149297;28;20037;-73
2024/02/29 10:36:18;;;;;;;15.38;8.00;;;;;;;11.75;74.25;100545.53;5150503;28;20516;-74
2024/02/29 10:38:49;;;;;;;17.58;8.93;;;;;;;11.76;71.40;100543.81;5151946;28;20026;-74
2024/02/29 10:41:21;;;;;;;17.15;8.45;;;;;;;11.71;71.58;100532.63;5151746;28;20033;-74
2024/02/29 10:43:54;;;;;;;14.20;7.85;;;;;;;11.77;74.28;100538.47;5125940;28;20041;-74
2024/02/29 10:46:26;;;;;;;17.65;8.50;;;;;;;11.82;73.50;100531.28;5148740;28;20022;-74
2024/02/29 10:49:06;;;;;;;13.30;7.93;;;;;;;11.89;72.88;100530.13;5150123;28;20050;-74
2024/02/29 10:51:42;;;;;;;14.95;8.30;;;;;;;11.98;73.94;100526.28;5151678;28;20037;-74
2024/02/29 10:54:50;;;;;;;17.27;8.82;;;;;;;12.05;72.40;100522.47;5137120;28;20041;-74
2024/02/29 10:57:25;;;;;;;14.52;8.38;;;;;;;12.07;72.62;100518.88;5163338;28;20539;-74
2024/02/29 11:00:02;;;;;;;16.45;8.63;;;;;;;12.16;72.32;100515.84;5152496;28;20504;-74
2024/02/29 11:02:32;;;;;;;14.90;7.75;;;;;;;12.15;71.99;100505.44;5147383;28;20038;-74
2024/02/29 11:05:04;;;;;;;16.40;8.50;;;;;;;12.37;73.06;100509.69;5151539;28;20482;-74
2024/02/29 11:07:34;;;;;;;13.75;8.52;;;;;;;12.40;72.34;100500.84;5159653;28;20427;-74
2024/02/29 11:10:06;;;;;;;15.05;7.82;;;;;;;12.55;70.88;100501.03;5150372;28;20031;-74
2024/02/29 11:12:44;;;;;;;16.15;7.97;;;;;;;12.68;70.58;100496.06;5159055;28;20026;-74
2024/02/29 11:15:14;;;;;;;14.35;7.15;;;;;;;12.62;69.97;100480.63;5152550;28;20038;-74
2024/02/29 11:17:46;;;;;;;13.68;7.30;;;;;;;12.58;69.55;100482.53;5152983;28;20038;-73
2024/02/29 11:20:20;;;;;;;13.27;7.32;;;;;;;12.48;70.33;100468.13;5152364;28;20038;-73
2024/02/29 11:23:03;;;;;;;14.95;7.70;;;;;;;12.65;72.04;100470.81;5149504;28;20053;-74
2024/02/29 11:25:33;;;;;;;12.50;7.22;;;;;;;12.87;70.46;100470.69;5153562;28;20113;-74
2024/02/29 11:28:04;;;;;;;16.83;7.80;;;;;;;12.94;70.32;100467.75;5149905;28;20144;-74
2024/02/29 11:30:35;;;;;;;12.25;7.15;;;;;;;12.87;69.46;100465.47;5149608;28;20034;-74